sensor_id;sensor_type;location;lat;lon;timestamp;P1;durP1;ratioP1;P2;durP2;ratioP2
16660;SDS011;8444;52.012;5.048;2023-08-08T00:01:10;6.03;;;2.17;;
16660;SDS011;8444;52.012;5.048;2023-08-08T00:03:35;12.65;;;2.33;;
16660;SDS011;8444;52.012;5.048;2023-08-08T00:06:00;9.13;;;2.42;;
16660;SDS011;8444;52.012;5.048;2023-08-08T00:08:26;7.18;;;2.83;;
16660;SDS011;8444;52.012;5.048;2023-08-08T00:10:51;6.93;;;2.75;;
16660;SDS011;8444;52.012;5.048;2023-08-08T00:13:16;11.25;;;3.75;;
16660;SDS011;8444;52.012;5.048;2023-08-08T00:15:41;10.02;;;2.50;;
16660;SDS011;8444;52.012;5.048;2023-08-08T00:18:07;5.57;;;2.25;;
16660;SDS011;8444;52.012;5.048;2023-08-08T00:20:32;7.70;;;3.08;;
16660;SDS011;8444;52.012;5.048;2023-08-08T00:22:57;8.45;;;2.95;;
16660;SDS011;8444;52.012;5.048;2023-08-08T00:25:22;9.30;;;3.03;;
16660;SDS011;8444;52.012;5.048;2023-08-08T00:27:48;5.55;;;2.35;;
16660;SDS011;8444;52.012;5.048;2023-08-08T00:30:14;8.40;;;2.88;;
16660;SDS011;8444;52.012;5.048;2023-08-08T00:32:39;8.18;;;2.22;;
16660;SDS011;8444;52.012;5.048;2023-08-08T00:35:05;8.57;;;2.28;;
16660;SDS011;8444;52.012;5.048;2023-08-08T00:37:30;13.40;;;3.22;;
16660;SDS011;8444;52.012;5.048;2023-08-08T00:39:55;11.10;;;2.92;;
16660;SDS011;8444;52.012;5.048;2023-08-08T00:42:20;6.55;;;4.05;;
16660;SDS011;8444;52.012;5.048;2023-08-08T00:44:46;8.27;;;3.13;;
16660;SDS011;8444;52.012;5.048;2023-08-08T00:47:11;8.15;;;2.17;;
16660;SDS011;8444;52.012;5.048;2023-08-08T00:49:36;13.40;;;2.65;;
16660;SDS011;8444;52.012;5.048;2023-08-08T00:52:02;8.95;;;2.63;;
16660;SDS011;8444;52.012;5.048;2023-08-08T00:54:27;10.02;;;2.58;;
16660;SDS011;8444;52.012;5.048;2023-08-08T00:56:53;6.32;;;3.03;;
16660;SDS011;8444;52.012;5.048;2023-08-08T00:59:18;8.23;;;2.72;;
16660;SDS011;8444;52.012;5.048;2023-08-08T01:01:44;13.43;;;3.60;;
16660;SDS011;8444;52.012;5.048;2023-08-08T01:04:09;14.27;;;2.70;;
16660;SDS011;8444;52.012;5.048;2023-08-08T01:09:01;10.55;;;2.75;;
16660;SDS011;8444;52.012;5.048;2023-08-08T01:11:27;7.07;;;2.75;;
16660;SDS011;8444;52.012;5.048;2023-08-08T01:13:54;9.60;;;3.28;;
16660;SDS011;8444;52.012;5.048;2023-08-08T01:16:19;10.82;;;2.40;;
16660;SDS011;8444;52.012;5.048;2023-08-08T01:18:46;13.95;;;3.67;;
16660;SDS011;8444;52.012;5.048;2023-08-08T01:21:12;10.90;;;2.60;;
16660;SDS011;8444;52.012;5.048;2023-08-08T01:23:43;14.00;;;4.05;;
16660;SDS011;8444;52.012;5.048;2023-08-08T01:26:10;12.23;;;3.28;;
16660;SDS011;8444;52.012;5.048;2023-08-08T01:28:35;12.45;;;3.75;;
16660;SDS011;8444;52.012;5.048;2023-08-08T01:31:00;6.85;;;2.88;;
16660;SDS011;8444;52.012;5.048;2023-08-08T01:33:25;12.68;;;3.70;;
16660;SDS011;8444;52.012;5.048;2023-08-08T01:35:55;8.23;;;3.53;;
16660;SDS011;8444;52.012;5.048;2023-08-08T01:38:34;8.60;;;3.42;;
16660;SDS011;8444;52.012;5.048;2023-08-08T01:41:01;10.40;;;3.63;;
16660;SDS011;8444;52.012;5.048;2023-08-08T01:43:27;12.48;;;3.88;;
16660;SDS011;8444;52.012;5.048;2023-08-08T01:45:53;13.02;;;3.72;;
16660;SDS011;8444;52.012;5.048;2023-08-08T01:48:18;13.10;;;3.72;;
16660;SDS011;8444;52.012;5.048;2023-08-08T01:50:44;9.43;;;3.53;;
16660;SDS011;8444;52.012;5.048;2023-08-08T01:53:09;14.43;;;4.20;;
16660;SDS011;8444;52.012;5.048;2023-08-08T01:55:34;12.05;;;3.08;;
16660;SDS011;8444;52.012;5.048;2023-08-08T01:58:00;14.65;;;3.75;;
16660;SDS011;8444;52.012;5.048;2023-08-08T02:00:25;10.80;;;3.45;;
16660;SDS011;8444;52.012;5.048;2023-08-08T02:02:50;8.55;;;3.17;;
16660;SDS011;8444;52.012;5.048;2023-08-08T02:05:15;11.43;;;4.28;;
16660;SDS011;8444;52.012;5.048;2023-08-08T02:07:41;9.35;;;3.83;;
16660;SDS011;8444;52.012;5.048;2023-08-08T02:10:06;14.60;;;3.90;;
16660;SDS011;8444;52.012;5.048;2023-08-08T02:12:31;10.57;;;3.95;;
16660;SDS011;8444;52.012;5.048;2023-08-08T02:14:57;14.45;;;4.13;;
16660;SDS011;8444;52.012;5.048;2023-08-08T02:17:22;13.82;;;4.13;;
16660;SDS011;8444;52.012;5.048;2023-08-08T02:19:47;8.77;;;3.75;;
16660;SDS011;8444;52.012;5.048;2023-08-08T02:22:13;6.57;;;3.50;;
16660;SDS011;8444;52.012;5.048;2023-08-08T02:24:38;12.45;;;4.90;;
16660;SDS011;8444;52.012;5.048;2023-08-08T02:27:03;12.20;;;4.85;;
16660;SDS011;8444;52.012;5.048;2023-08-08T02:29:29;16.58;;;4.15;;
16660;SDS011;8444;52.012;5.048;2023-08-08T02:31:54;10.02;;;4.15;;
16660;SDS011;8444;52.012;5.048;2023-08-08T02:34:19;10.25;;;3.67;;
16660;SDS011;8444;52.012;5.048;2023-08-08T02:36:45;12.00;;;3.92;;
16660;SDS011;8444;52.012;5.048;2023-08-08T02:39:10;9.82;;;3.35;;
16660;SDS011;8444;52.012;5.048;2023-08-08T02:41:35;8.20;;;3.78;;
16660;SDS011;8444;52.012;5.048;2023-08-08T02:44:00;8.35;;;3.50;;
16660;SDS011;8444;52.012;5.048;2023-08-08T02:46:26;9.93;;;4.63;;
16660;SDS011;8444;52.012;5.048;2023-08-08T02:48:51;10.43;;;3.30;;
16660;SDS011;8444;52.012;5.048;2023-08-08T02:51:16;6.10;;;3.30;;
16660;SDS011;8444;52.012;5.048;2023-08-08T02:53:41;10.63;;;4.10;;
16660;SDS011;8444;52.012;5.048;2023-08-08T02:56:06;12.27;;;3.78;;
16660;SDS011;8444;52.012;5.048;2023-08-08T02:58:32;11.68;;;5.13;;
16660;SDS011;8444;52.012;5.048;2023-08-08T03:00:57;9.77;;;3.55;;
16660;SDS011;8444;52.012;5.048;2023-08-08T03:03:22;9.30;;;4.22;;
16660;SDS011;8444;52.012;5.048;2023-08-08T03:05:48;8.30;;;4.10;;
16660;SDS011;8444;52.012;5.048;2023-08-08T03:08:14;14.48;;;4.43;;
16660;SDS011;8444;52.012;5.048;2023-08-08T03:10:39;9.52;;;4.60;;
16660;SDS011;8444;52.012;5.048;2023-08-08T03:13:06;8.18;;;4.22;;
16660;SDS011;8444;52.012;5.048;2023-08-08T03:15:31;11.40;;;4.53;;
16660;SDS011;8444;52.012;5.048;2023-08-08T03:17:56;12.65;;;4.82;;
16660;SDS011;8444;52.012;5.048;2023-08-08T03:20:21;14.23;;;5.53;;
16660;SDS011;8444;52.012;5.048;2023-08-08T03:22:46;11.43;;;3.95;;
16660;SDS011;8444;52.012;5.048;2023-08-08T03:25:12;7.75;;;4.38;;
16660;SDS011;8444;52.012;5.048;2023-08-08T03:27:37;10.10;;;3.85;;
16660;SDS011;8444;52.012;5.048;2023-08-08T03:30:02;6.35;;;3.63;;
16660;SDS011;8444;52.012;5.048;2023-08-08T03:32:28;7.35;;;3.88;;
16660;SDS011;8444;52.012;5.048;2023-08-08T03:34:53;9.18;;;4.25;;
16660;SDS011;8444;52.012;5.048;2023-08-08T03:37:18;7.88;;;3.65;;
16660;SDS011;8444;52.012;5.048;2023-08-08T03:39:43;9.05;;;3.33;;
16660;SDS011;8444;52.012;5.048;2023-08-08T03:42:08;8.52;;;3.72;;
16660;SDS011;8444;52.012;5.048;2023-08-08T03:44:34;7.65;;;3.90;;
16660;SDS011;8444;52.012;5.048;2023-08-08T03:46:59;8.32;;;4.22;;
16660;SDS011;8444;52.012;5.048;2023-08-08T03:49:25;8.57;;;3.75;;
16660;SDS011;8444;52.012;5.048;2023-08-08T03:51:50;11.98;;;4.18;;
16660;SDS011;8444;52.012;5.048;2023-08-08T03:54:16;13.55;;;4.03;;
16660;SDS011;8444;52.012;5.048;2023-08-08T03:56:42;6.63;;;4.20;;
16660;SDS011;8444;52.012;5.048;2023-08-08T03:59:07;8.32;;;3.25;;
16660;SDS011;8444;52.012;5.048;2023-08-08T04:01:32;6.30;;;3.92;;
16660;SDS011;8444;52.012;5.048;2023-08-08T04:03:57;6.63;;;4.10;;
16660;SDS011;8444;52.012;5.048;2023-08-08T04:06:23;7.22;;;4.00;;
16660;SDS011;8444;52.012;5.048;2023-08-08T04:08:48;10.40;;;4.35;;
16660;SDS011;8444;52.012;5.048;2023-08-08T04:11:13;9.32;;;4.13;;
16660;SDS011;8444;52.012;5.048;2023-08-08T04:13:38;7.35;;;3.72;;
16660;SDS011;8444;52.012;5.048;2023-08-08T04:16:03;7.93;;;3.50;;
16660;SDS011;8444;52.012;5.048;2023-08-08T04:18:29;11.15;;;5.45;;
16660;SDS011;8444;52.012;5.048;2023-08-08T04:20:54;6.78;;;3.70;;
16660;SDS011;8444;52.012;5.048;2023-08-08T04:23:19;13.82;;;3.55;;
16660;SDS011;8444;52.012;5.048;2023-08-08T04:25:45;5.35;;;3.42;;
16660;SDS011;8444;52.012;5.048;2023-08-08T04:28:10;6.97;;;3.40;;
16660;SDS011;8444;52.012;5.048;2023-08-08T04:30:35;6.15;;;3.72;;
16660;SDS011;8444;52.012;5.048;2023-08-08T04:33:00;7.38;;;2.55;;
16660;SDS011;8444;52.012;5.048;2023-08-08T04:35:26;4.70;;;2.67;;
16660;SDS011;8444;52.012;5.048;2023-08-08T04:37:51;6.50;;;2.70;;
16660;SDS011;8444;52.012;5.048;2023-08-08T04:40:16;4.72;;;2.25;;
16660;SDS011;8444;52.012;5.048;2023-08-08T04:42:42;4.45;;;2.40;;
16660;SDS011;8444;52.012;5.048;2023-08-08T04:45:07;5.07;;;2.33;;
16660;SDS011;8444;52.012;5.048;2023-08-08T04:47:33;5.10;;;1.58;;
16660;SDS011;8444;52.012;5.048;2023-08-08T04:49:58;5.63;;;2.10;;
16660;SDS011;8444;52.012;5.048;2023-08-08T04:52:23;6.40;;;2.03;;
16660;SDS011;8444;52.012;5.048;2023-08-08T04:54:48;1.65;;;1.27;;
16660;SDS011;8444;52.012;5.048;2023-08-08T04:57:14;4.38;;;1.63;;
16660;SDS011;8444;52.012;5.048;2023-08-08T04:59:39;2.13;;;1.05;;
16660;SDS011;8444;52.012;5.048;2023-08-08T05:02:04;2.58;;;1.20;;
16660;SDS011;8444;52.012;5.048;2023-08-08T05:04:30;6.55;;;1.42;;
16660;SDS011;8444;52.012;5.048;2023-08-08T05:06:55;3.40;;;1.30;;
16660;SDS011;8444;52.012;5.048;2023-08-08T05:09:20;1.73;;;1.00;;
16660;SDS011;8444;52.012;5.048;2023-08-08T05:11:45;2.35;;;1.08;;
16660;SDS011;8444;52.012;5.048;2023-08-08T05:14:11;4.50;;;1.23;;
16660;SDS011;8444;52.012;5.048;2023-08-08T05:16:36;1.75;;;1.10;;
16660;SDS011;8444;52.012;5.048;2023-08-08T05:19:01;3.80;;;1.10;;
16660;SDS011;8444;52.012;5.048;2023-08-08T05:21:27;2.80;;;1.00;;
16660;SDS011;8444;52.012;5.048;2023-08-08T05:23:52;2.25;;;1.33;;
16660;SDS011;8444;52.012;5.048;2023-08-08T05:26:17;3.33;;;1.08;;
16660;SDS011;8444;52.012;5.048;2023-08-08T05:28:42;3.50;;;1.10;;
16660;SDS011;8444;52.012;5.048;2023-08-08T05:31:07;1.45;;;0.88;;
16660;SDS011;8444;52.012;5.048;2023-08-08T05:33:33;3.40;;;1.20;;
16660;SDS011;8444;52.012;5.048;2023-08-08T05:35:58;1.00;;;0.82;;
16660;SDS011;8444;52.012;5.048;2023-08-08T05:38:23;4.78;;;1.08;;
16660;SDS011;8444;52.012;5.048;2023-08-08T05:40:48;2.05;;;1.30;;
16660;SDS011;8444;52.012;5.048;2023-08-08T05:43:14;6.30;;;1.20;;
16660;SDS011;8444;52.012;5.048;2023-08-08T05:45:43;1.88;;;0.77;;
16660;SDS011;8444;52.012;5.048;2023-08-08T05:48:08;3.15;;;0.80;;
16660;SDS011;8444;52.012;5.048;2023-08-08T05:50:36;1.35;;;0.95;;
16660;SDS011;8444;52.012;5.048;2023-08-08T05:53:02;3.05;;;1.30;;
16660;SDS011;8444;52.012;5.048;2023-08-08T05:55:27;5.00;;;1.20;;
16660;SDS011;8444;52.012;5.048;2023-08-08T05:57:52;2.72;;;1.88;;
16660;SDS011;8444;52.012;5.048;2023-08-08T06:00:18;2.83;;;1.30;;
16660;SDS011;8444;52.012;5.048;2023-08-08T06:02:43;2.03;;;0.88;;
16660;SDS011;8444;52.012;5.048;2023-08-08T06:05:10;3.30;;;0.75;;
16660;SDS011;8444;52.012;5.048;2023-08-08T06:07:35;6.85;;;1.10;;
16660;SDS011;8444;52.012;5.048;2023-08-08T06:10:00;2.42;;;0.80;;
16660;SDS011;8444;52.012;5.048;2023-08-08T06:12:26;3.33;;;1.10;;
16660;SDS011;8444;52.012;5.048;2023-08-08T06:14:51;4.10;;;1.30;;
16660;SDS011;8444;52.012;5.048;2023-08-08T06:17:16;2.67;;;0.90;;
16660;SDS011;8444;52.012;5.048;2023-08-08T06:19:41;4.22;;;1.10;;
16660;SDS011;8444;52.012;5.048;2023-08-08T06:22:07;4.25;;;1.17;;
16660;SDS011;8444;52.012;5.048;2023-08-08T06:24:32;2.00;;;1.00;;
16660;SDS011;8444;52.012;5.048;2023-08-08T06:26:57;2.80;;;1.05;;
16660;SDS011;8444;52.012;5.048;2023-08-08T06:29:23;3.90;;;0.90;;
16660;SDS011;8444;52.012;5.048;2023-08-08T06:31:48;1.88;;;0.93;;
16660;SDS011;8444;52.012;5.048;2023-08-08T06:34:13;6.40;;;1.20;;
16660;SDS011;8444;52.012;5.048;2023-08-08T06:36:38;2.13;;;0.85;;
16660;SDS011;8444;52.012;5.048;2023-08-08T06:39:03;1.77;;;0.60;;
16660;SDS011;8444;52.012;5.048;2023-08-08T06:41:29;1.67;;;0.75;;
16660;SDS011;8444;52.012;5.048;2023-08-08T06:43:54;4.40;;;0.82;;
16660;SDS011;8444;52.012;5.048;2023-08-08T06:46:20;3.35;;;1.00;;
16660;SDS011;8444;52.012;5.048;2023-08-08T06:48:45;1.55;;;1.00;;
16660;SDS011;8444;52.012;5.048;2023-08-08T06:51:11;1.33;;;0.60;;
16660;SDS011;8444;52.012;5.048;2023-08-08T06:53:37;4.00;;;1.08;;
16660;SDS011;8444;52.012;5.048;2023-08-08T06:56:02;6.35;;;1.35;;
16660;SDS011;8444;52.012;5.048;2023-08-08T06:58:27;4.10;;;0.90;;
16660;SDS011;8444;52.012;5.048;2023-08-08T07:00:53;2.75;;;0.63;;
16660;SDS011;8444;52.012;5.048;2023-08-08T07:03:18;1.23;;;0.60;;
16660;SDS011;8444;52.012;5.048;2023-08-08T07:05:43;2.53;;;0.57;;
16660;SDS011;8444;52.012;5.048;2023-08-08T07:08:08;3.47;;;0.60;;
16660;SDS011;8444;52.012;5.048;2023-08-08T07:10:34;4.28;;;0.55;;
16660;SDS011;8444;52.012;5.048;2023-08-08T07:13:00;2.67;;;0.55;;
16660;SDS011;8444;52.012;5.048;2023-08-08T07:15:25;2.10;;;0.45;;
16660;SDS011;8444;52.012;5.048;2023-08-08T07:17:51;1.55;;;0.40;;
16660;SDS011;8444;52.012;5.048;2023-08-08T07:20:16;1.45;;;0.50;;
16660;SDS011;8444;52.012;5.048;2023-08-08T07:22:42;3.92;;;0.50;;
16660;SDS011;8444;52.012;5.048;2023-08-08T07:25:08;1.38;;;0.40;;
16660;SDS011;8444;52.012;5.048;2023-08-08T07:27:33;4.10;;;0.40;;
16660;SDS011;8444;52.012;5.048;2023-08-08T07:29:59;1.65;;;0.40;;
16660;SDS011;8444;52.012;5.048;2023-08-08T07:32:26;2.75;;;0.60;;
16660;SDS011;8444;52.012;5.048;2023-08-08T07:34:51;3.10;;;0.82;;
16660;SDS011;8444;52.012;5.048;2023-08-08T07:37:16;1.55;;;0.68;;
16660;SDS011;8444;52.012;5.048;2023-08-08T07:39:41;1.45;;;0.57;;
16660;SDS011;8444;52.012;5.048;2023-08-08T07:42:06;4.13;;;0.70;;
16660;SDS011;8444;52.012;5.048;2023-08-08T07:44:32;1.70;;;0.60;;
16660;SDS011;8444;52.012;5.048;2023-08-08T07:46:59;2.33;;;0.65;;
16660;SDS011;8444;52.012;5.048;2023-08-08T07:49:24;0.80;;;0.30;;
16660;SDS011;8444;52.012;5.048;2023-08-08T07:51:50;2.17;;;0.85;;
16660;SDS011;8444;52.012;5.048;2023-08-08T07:54:15;2.38;;;0.50;;
16660;SDS011;8444;52.012;5.048;2023-08-08T07:56:40;1.70;;;0.47;;
16660;SDS011;8444;52.012;5.048;2023-08-08T07:59:07;0.38;;;0.13;;
16660;SDS011;8444;52.012;5.048;2023-08-08T08:01:34;1.45;;;0.50;;
16660;SDS011;8444;52.012;5.048;2023-08-08T08:03:59;2.08;;;0.40;;
16660;SDS011;8444;52.012;5.048;2023-08-08T08:06:24;1.15;;;0.40;;
16660;SDS011;8444;52.012;5.048;2023-08-08T08:08:49;1.08;;;0.30;;
16660;SDS011;8444;52.012;5.048;2023-08-08T08:11:14;3.67;;;0.52;;
16660;SDS011;8444;52.012;5.048;2023-08-08T08:13:41;1.30;;;0.45;;
16660;SDS011;8444;52.012;5.048;2023-08-08T08:16:06;1.30;;;0.38;;
16660;SDS011;8444;52.012;5.048;2023-08-08T08:18:32;1.13;;;0.50;;
16660;SDS011;8444;52.012;5.048;2023-08-08T08:20:58;1.73;;;0.50;;
16660;SDS011;8444;52.012;5.048;2023-08-08T08:23:23;1.70;;;0.57;;
16660;SDS011;8444;52.012;5.048;2023-08-08T08:25:48;0.88;;;0.30;;
16660;SDS011;8444;52.012;5.048;2023-08-08T08:28:15;0.77;;;0.35;;
16660;SDS011;8444;52.012;5.048;2023-08-08T08:30:40;2.55;;;0.47;;
16660;SDS011;8444;52.012;5.048;2023-08-08T08:33:06;1.55;;;0.30;;
16660;SDS011;8444;52.012;5.048;2023-08-08T08:35:32;0.43;;;0.40;;
16660;SDS011;8444;52.012;5.048;2023-08-08T08:37:58;0.57;;;0.28;;
16660;SDS011;8444;52.012;5.048;2023-08-08T08:40:23;1.23;;;0.75;;
16660;SDS011;8444;52.012;5.048;2023-08-08T08:42:48;0.20;;;0.20;;
16660;SDS011;8444;52.012;5.048;2023-08-08T08:45:14;2.80;;;0.40;;
16660;SDS011;8444;52.012;5.048;2023-08-08T08:47:40;1.17;;;0.57;;
16660;SDS011;8444;52.012;5.048;2023-08-08T08:50:06;0.75;;;0.38;;
16660;SDS011;8444;52.012;5.048;2023-08-08T08:52:32;0.57;;;0.40;;
16660;SDS011;8444;52.012;5.048;2023-08-08T08:54:57;1.00;;;0.22;;
16660;SDS011;8444;52.012;5.048;2023-08-08T08:57:23;1.83;;;0.95;;
16660;SDS011;8444;52.012;5.048;2023-08-08T08:59:48;0.95;;;0.50;;
16660;SDS011;8444;52.012;5.048;2023-08-08T09:02:14;1.73;;;0.35;;
16660;SDS011;8444;52.012;5.048;2023-08-08T09:04:39;0.73;;;0.38;;
16660;SDS011;8444;52.012;5.048;2023-08-08T09:07:05;0.82;;;0.40;;
16660;SDS011;8444;52.012;5.048;2023-08-08T09:09:31;1.85;;;0.43;;
16660;SDS011;8444;52.012;5.048;2023-08-08T09:11:57;0.85;;;0.40;;
16660;SDS011;8444;52.012;5.048;2023-08-08T09:14:23;0.73;;;0.30;;
16660;SDS011;8444;52.012;5.048;2023-08-08T09:16:49;1.73;;;0.25;;
16660;SDS011;8444;52.012;5.048;2023-08-08T09:19:15;1.50;;;0.40;;
16660;SDS011;8444;52.012;5.048;2023-08-08T09:21:40;2.58;;;0.45;;
16660;SDS011;8444;52.012;5.048;2023-08-08T09:24:05;1.45;;;0.55;;
16660;SDS011;8444;52.012;5.048;2023-08-08T09:26:31;1.15;;;0.55;;
16660;SDS011;8444;52.012;5.048;2023-08-08T09:28:57;1.20;;;0.43;;
16660;SDS011;8444;52.012;5.048;2023-08-08T09:31:24;3.50;;;1.00;;
16660;SDS011;8444;52.012;5.048;2023-08-08T09:33:49;1.92;;;0.30;;
16660;SDS011;8444;52.012;5.048;2023-08-08T09:36:16;1.20;;;0.50;;
16660;SDS011;8444;52.012;5.048;2023-08-08T09:38:41;0.80;;;0.35;;
16660;SDS011;8444;52.012;5.048;2023-08-08T09:41:07;1.00;;;0.55;;
16660;SDS011;8444;52.012;5.048;2023-08-08T09:43:32;1.25;;;0.50;;
16660;SDS011;8444;52.012;5.048;2023-08-08T09:45:58;0.38;;;0.20;;
16660;SDS011;8444;52.012;5.048;2023-08-08T09:48:23;2.42;;;0.57;;
16660;SDS011;8444;52.012;5.048;2023-08-08T09:50:54;1.15;;;0.40;;
16660;SDS011;8444;52.012;5.048;2023-08-08T09:53:19;0.70;;;0.60;;
16660;SDS011;8444;52.012;5.048;2023-08-08T09:55:45;0.85;;;0.50;;
16660;SDS011;8444;52.012;5.048;2023-08-08T09:58:11;0.70;;;0.28;;
16660;SDS011;8444;52.012;5.048;2023-08-08T10:00:36;1.05;;;0.50;;
16660;SDS011;8444;52.012;5.048;2023-08-08T10:03:02;1.85;;;0.70;;
16660;SDS011;8444;52.012;5.048;2023-08-08T10:05:27;1.80;;;0.30;;
16660;SDS011;8444;52.012;5.048;2023-08-08T10:07:53;2.15;;;0.50;;
16660;SDS011;8444;52.012;5.048;2023-08-08T10:10:18;0.65;;;0.40;;
16660;SDS011;8444;52.012;5.048;2023-08-08T10:12:44;1.73;;;0.60;;
16660;SDS011;8444;52.012;5.048;2023-08-08T10:15:09;2.25;;;1.15;;
16660;SDS011;8444;52.012;5.048;2023-08-08T10:17:35;1.77;;;0.82;;
16660;SDS011;8444;52.012;5.048;2023-08-08T10:20:01;1.13;;;0.45;;
16660;SDS011;8444;52.012;5.048;2023-08-08T10:22:34;3.45;;;0.60;;
16660;SDS011;8444;52.012;5.048;2023-08-08T10:25:00;0.55;;;0.40;;
16660;SDS011;8444;52.012;5.048;2023-08-08T10:27:30;2.45;;;0.65;;
16660;SDS011;8444;52.012;5.048;2023-08-08T10:30:00;2.17;;;0.80;;
16660;SDS011;8444;52.012;5.048;2023-08-08T10:32:26;1.58;;;0.60;;
16660;SDS011;8444;52.012;5.048;2023-08-08T10:34:51;1.05;;;0.50;;
16660;SDS011;8444;52.012;5.048;2023-08-08T10:37:20;0.85;;;0.80;;
16660;SDS011;8444;52.012;5.048;2023-08-08T10:39:52;2.58;;;0.60;;
16660;SDS011;8444;52.012;5.048;2023-08-08T10:42:18;2.42;;;0.50;;
16660;SDS011;8444;52.012;5.048;2023-08-08T10:44:50;1.33;;;0.60;;
16660;SDS011;8444;52.012;5.048;2023-08-08T10:47:20;0.75;;;0.20;;
16660;SDS011;8444;52.012;5.048;2023-08-08T10:49:55;0.57;;;0.40;;
16660;SDS011;8444;52.012;5.048;2023-08-08T10:52:21;0.95;;;0.52;;
16660;SDS011;8444;52.012;5.048;2023-08-08T10:54:51;1.17;;;0.50;;
16660;SDS011;8444;52.012;5.048;2023-08-08T10:57:16;1.65;;;0.70;;
16660;SDS011;8444;52.012;5.048;2023-08-08T10:59:44;1.98;;;0.70;;
16660;SDS011;8444;52.012;5.048;2023-08-08T11:02:09;1.75;;;0.75;;
16660;SDS011;8444;52.012;5.048;2023-08-08T11:04:34;1.98;;;0.55;;
16660;SDS011;8444;52.012;5.048;2023-08-08T11:07:00;0.52;;;0.52;;
16660;SDS011;8444;52.012;5.048;2023-08-08T11:09:26;0.63;;;0.57;;
16660;SDS011;8444;52.012;5.048;2023-08-08T11:11:51;0.80;;;0.40;;
16660;SDS011;8444;52.012;5.048;2023-08-08T11:14:17;1.33;;;0.65;;
16660;SDS011;8444;52.012;5.048;2023-08-08T11:16:43;0.73;;;0.30;;
16660;SDS011;8444;52.012;5.048;2023-08-08T11:19:09;2.83;;;0.43;;
16660;SDS011;8444;52.012;5.048;2023-08-08T11:21:35;2.47;;;0.57;;
16660;SDS011;8444;52.012;5.048;2023-08-08T11:24:02;1.63;;;0.70;;
16660;SDS011;8444;52.012;5.048;2023-08-08T11:26:27;2.38;;;0.68;;
16660;SDS011;8444;52.012;5.048;2023-08-08T11:28:53;1.20;;;0.45;;
16660;SDS011;8444;52.012;5.048;2023-08-08T11:31:21;1.05;;;0.50;;
16660;SDS011;8444;52.012;5.048;2023-08-08T11:33:47;1.77;;;0.70;;
16660;SDS011;8444;52.012;5.048;2023-08-08T11:36:13;1.00;;;0.60;;
16660;SDS011;8444;52.012;5.048;2023-08-08T11:38:38;3.70;;;0.80;;
16660;SDS011;8444;52.012;5.048;2023-08-08T11:41:05;1.55;;;0.57;;
16660;SDS011;8444;52.012;5.048;2023-08-08T11:43:30;1.50;;;0.63;;
16660;SDS011;8444;52.012;5.048;2023-08-08T11:45:55;1.63;;;0.50;;
16660;SDS011;8444;52.012;5.048;2023-08-08T11:48:21;2.60;;;0.90;;
16660;SDS011;8444;52.012;5.048;2023-08-08T11:50:46;1.30;;;0.70;;
16660;SDS011;8444;52.012;5.048;2023-08-08T11:53:11;4.07;;;0.77;;
16660;SDS011;8444;52.012;5.048;2023-08-08T11:55:37;1.30;;;0.65;;
16660;SDS011;8444;52.012;5.048;2023-08-08T11:58:02;1.45;;;0.70;;
16660;SDS011;8444;52.012;5.048;2023-08-08T12:00:30;1.80;;;0.52;;
16660;SDS011;8444;52.012;5.048;2023-08-08T12:02:56;1.27;;;0.50;;
16660;SDS011;8444;52.012;5.048;2023-08-08T12:05:22;1.35;;;0.57;;
16660;SDS011;8444;52.012;5.048;2023-08-08T12:07:48;0.70;;;0.43;;
16660;SDS011;8444;52.012;5.048;2023-08-08T12:10:17;3.45;;;0.50;;
16660;SDS011;8444;52.012;5.048;2023-08-08T12:12:43;1.10;;;0.40;;
16660;SDS011;8444;52.012;5.048;2023-08-08T12:15:09;1.42;;;0.40;;
16660;SDS011;8444;52.012;5.048;2023-08-08T12:17:35;3.15;;;0.43;;
16660;SDS011;8444;52.012;5.048;2023-08-08T12:20:02;0.57;;;0.50;;
16660;SDS011;8444;52.012;5.048;2023-08-08T12:22:28;0.82;;;0.50;;
16660;SDS011;8444;52.012;5.048;2023-08-08T12:24:54;0.85;;;0.30;;
16660;SDS011;8444;52.012;5.048;2023-08-08T12:27:19;0.57;;;0.30;;
16660;SDS011;8444;52.012;5.048;2023-08-08T12:29:44;1.50;;;0.50;;
16660;SDS011;8444;52.012;5.048;2023-08-08T12:32:09;0.82;;;0.30;;
16660;SDS011;8444;52.012;5.048;2023-08-08T12:34:35;1.88;;;0.40;;
16660;SDS011;8444;52.012;5.048;2023-08-08T12:37:00;1.00;;;0.40;;
16660;SDS011;8444;52.012;5.048;2023-08-08T12:39:26;2.75;;;0.65;;
16660;SDS011;8444;52.012;5.048;2023-08-08T12:41:51;1.20;;;0.32;;
16660;SDS011;8444;52.012;5.048;2023-08-08T12:44:16;1.23;;;0.50;;
16660;SDS011;8444;52.012;5.048;2023-08-08T12:46:41;2.47;;;0.70;;
16660;SDS011;8444;52.012;5.048;2023-08-08T12:49:07;1.80;;;0.60;;
16660;SDS011;8444;52.012;5.048;2023-08-08T12:51:33;2.50;;;0.60;;
16660;SDS011;8444;52.012;5.048;2023-08-08T12:53:58;4.63;;;0.85;;
16660;SDS011;8444;52.012;5.048;2023-08-08T12:56:23;1.67;;;0.40;;
16660;SDS011;8444;52.012;5.048;2023-08-08T12:58:48;0.73;;;0.50;;
16660;SDS011;8444;52.012;5.048;2023-08-08T13:01:15;2.95;;;0.88;;
16660;SDS011;8444;52.012;5.048;2023-08-08T13:03:40;1.85;;;0.68;;
16660;SDS011;8444;52.012;5.048;2023-08-08T13:06:05;1.27;;;0.50;;
16660;SDS011;8444;52.012;5.048;2023-08-08T13:08:30;0.77;;;0.40;;
16660;SDS011;8444;52.012;5.048;2023-08-08T13:10:57;2.65;;;0.70;;
16660;SDS011;8444;52.012;5.048;2023-08-08T13:13:22;0.85;;;0.52;;
16660;SDS011;8444;52.012;5.048;2023-08-08T13:15:50;1.08;;;0.45;;
16660;SDS011;8444;52.012;5.048;2023-08-08T13:18:15;3.33;;;0.50;;
16660;SDS011;8444;52.012;5.048;2023-08-08T13:20:40;0.93;;;0.50;;
16660;SDS011;8444;52.012;5.048;2023-08-08T13:23:05;3.08;;;0.70;;
16660;SDS011;8444;52.012;5.048;2023-08-08T13:25:31;1.23;;;0.40;;
16660;SDS011;8444;52.012;5.048;2023-08-08T13:27:59;1.08;;;0.68;;
16660;SDS011;8444;52.012;5.048;2023-08-08T13:30:24;0.93;;;0.50;;
16660;SDS011;8444;52.012;5.048;2023-08-08T13:32:49;1.25;;;0.50;;
16660;SDS011;8444;52.012;5.048;2023-08-08T13:35:14;1.88;;;0.82;;
16660;SDS011;8444;52.012;5.048;2023-08-08T13:37:40;1.40;;;0.85;;
16660;SDS011;8444;52.012;5.048;2023-08-08T13:40:05;1.27;;;0.85;;
16660;SDS011;8444;52.012;5.048;2023-08-08T13:42:30;1.58;;;0.60;;
16660;SDS011;8444;52.012;5.048;2023-08-08T13:44:56;1.70;;;0.40;;
16660;SDS011;8444;52.012;5.048;2023-08-08T13:47:21;2.47;;;0.47;;
16660;SDS011;8444;52.012;5.048;2023-08-08T13:49:46;3.47;;;0.60;;
16660;SDS011;8444;52.012;5.048;2023-08-08T13:52:11;1.25;;;0.50;;
16660;SDS011;8444;52.012;5.048;2023-08-08T13:54:36;1.98;;;0.80;;
16660;SDS011;8444;52.012;5.048;2023-08-08T13:57:02;1.92;;;0.90;;
16660;SDS011;8444;52.012;5.048;2023-08-08T13:59:27;0.60;;;0.52;;
16660;SDS011;8444;52.012;5.048;2023-08-08T14:01:52;0.75;;;0.50;;
16660;SDS011;8444;52.012;5.048;2023-08-08T14:04:17;1.42;;;0.82;;
16660;SDS011;8444;52.012;5.048;2023-08-08T14:06:43;2.03;;;0.52;;
16660;SDS011;8444;52.012;5.048;2023-08-08T14:09:09;1.23;;;0.75;;
16660;SDS011;8444;52.012;5.048;2023-08-08T14:11:34;1.47;;;0.50;;
16660;SDS011;8444;52.012;5.048;2023-08-08T14:14:00;1.75;;;0.50;;
16660;SDS011;8444;52.012;5.048;2023-08-08T14:16:25;2.78;;;0.80;;
16660;SDS011;8444;52.012;5.048;2023-08-08T14:18:50;1.98;;;0.85;;
16660;SDS011;8444;52.012;5.048;2023-08-08T14:21:15;2.22;;;0.50;;
16660;SDS011;8444;52.012;5.048;2023-08-08T14:23:40;3.03;;;0.90;;
16660;SDS011;8444;52.012;5.048;2023-08-08T14:26:06;1.48;;;0.68;;
16660;SDS011;8444;52.012;5.048;2023-08-08T14:28:31;4.53;;;0.80;;
16660;SDS011;8444;52.012;5.048;2023-08-08T14:30:56;2.70;;;1.20;;
16660;SDS011;8444;52.012;5.048;2023-08-08T14:33:21;1.20;;;0.65;;
16660;SDS011;8444;52.012;5.048;2023-08-08T14:35:47;1.80;;;0.80;;
16660;SDS011;8444;52.012;5.048;2023-08-08T14:38:12;2.78;;;0.80;;
16660;SDS011;8444;52.012;5.048;2023-08-08T14:40:37;2.15;;;0.85;;
16660;SDS011;8444;52.012;5.048;2023-08-08T14:43:02;1.52;;;1.42;;
16660;SDS011;8444;52.012;5.048;2023-08-08T14:45:28;1.15;;;0.68;;
16660;SDS011;8444;52.012;5.048;2023-08-08T14:47:54;1.33;;;0.80;;
16660;SDS011;8444;52.012;5.048;2023-08-08T14:50:20;2.28;;;0.77;;
16660;SDS011;8444;52.012;5.048;2023-08-08T14:52:45;1.30;;;0.73;;